Time;durP1;ratioP1;P1;durP2;ratioP2;P2;SDS_P1;SDS_P2;PMS_P1;PMS_P2;Temp;Humidity;BMP_temperature;BMP_pressure;BME280_temperature;BME280_humidity;BME280_pressure;Samples;Min_cycle;Max_cycle;Signal;HPM_P1;HPM_P2
2022/10/07 00:01:15;;;;;;;;;;;;;;;16.85;56.89;101918.06;5057676;28;1237;-50
2022/10/07 00:03:40;;;;;;;;;;;;;;;16.51;57.22;101907.03;5071403;28;1269;-52
2022/10/07 00:06:06;;;;;;;;;;;;;;;16.39;57.17;101909.78;5058772;28;1818;-52
2022/10/07 00:08:32;;;;;;;;;;;;;;;16.36;57.50;101907.53;5077615;28;1130;-56
2022/10/07 00:10:57;;;;;;;;;;;;;;;17.70;55.32;101904.31;5077388;28;1162;-54
2022/10/07 00:13:23;;;;;;;;;;;;;;;16.85;57.17;101898.00;5075900;28;1159;-57
2022/10/07 00:15:48;;;;;;;;;;;;;;;16.53;57.44;101895.78;5076331;28;1170;-50
2022/10/07 00:18:13;;;;;;;;;;;;;;;16.39;57.18;101890.56;5077266;28;1142;-52
2022/10/07 00:20:39;;;;;;;;;;;;;;;16.20;57.04;101891.84;5077043;28;1984;-56
2022/10/07 00:23:05;;;;;;;;;;;;;;;16.88;57.23;101887.38;5077290;28;1227;-53
2022/10/07 00:25:30;;;;;;;;;;;;;;;17.24;56.32;101884.41;5077002;28;1197;-56
2022/10/07 00:27:56;;;;;;;;;;;;;;;16.63;57.48;101881.41;5076685;28;1154;-55
2022/10/07 00:30:22;;;;;;;;;;;;;;;16.40;57.54;101869.47;5058680;28;1178;-55
2022/10/07 00:32:47;;;;;;;;;;;;;;;16.25;57.07;101873.56;5076631;28;1115;-49
2022/10/07 00:35:13;;;;;;;;;;;;;;;17.62;55.70;101875.31;5058990;28;1119;-51
2022/10/07 00:37:41;;;;;;;;;;;;;;;16.95;56.72;101870.72;5076221;28;1426;-49
2022/10/07 00:40:08;;;;;;;;;;;;;;;16.58;57.25;101871.19;5058185;28;1970;-49
2022/10/07 00:42:34;;;;;;;;;;;;;;;16.41;57.28;101866.47;5077031;28;1150;-57
2022/10/07 00:45:00;;;;;;;;;;;;;;;16.25;57.05;101861.75;5075290;28;1435;-55
2022/10/07 00:47:29;;;;;;;;;;;;;;;17.31;56.34;101868.56;5076538;28;1206;-53
2022/10/07 00:49:54;;;;;;;;;;;;;;;17.06;56.65;101856.06;5068599;28;1162;-53
2022/10/07 00:52:20;;;;;;;;;;;;;;;16.63;57.32;101863.00;5056174;28;1229;-52
2022/10/07 00:54:46;;;;;;;;;;;;;;;16.40;57.32;101859.31;5072027;28;1182;-54
2022/10/07 00:57:12;;;;;;;;;;;;;;;16.29;57.25;101851.16;5071966;28;1126;-53
2022/10/07 00:59:38;;;;;;;;;;;;;;;16.35;57.64;101850.97;5058504;28;1913;-54
2022/10/07 01:02:05;;;;;;;;;;;;;;;17.52;55.53;101852.38;5076525;28;1207;-50
2022/10/07 01:04:30;;;;;;;;;;;;;;;16.70;57.25;101852.69;5076293;28;852;-54
2022/10/07 01:06:55;;;;;;;;;;;;;;;16.47;57.54;101859.16;5074937;28;1278;-55
2022/10/07 01:09:21;;;;;;;;;;;;;;;16.30;57.18;101853.63;5076535;28;1257;-53
2022/10/07 01:11:58;;;;;;;;;;;;;;;17.30;56.39;101855.88;5076348;28;1213;-54
2022/10/07 01:14:30;;;;;;;;;;;;;;;17.22;56.41;101851.66;5076193;28;1202;-53
2022/10/07 01:17:03;;;;;;;;;;;;;;;16.68;57.19;101852.13;5076429;28;1139;-55
2022/10/07 01:19:44;;;;;;;;;;;;;;;16.49;57.27;101856.16;5076398;28;1906;-51
2022/10/07 01:22:16;;;;;;;;;;;;;;;16.26;57.31;101844.22;5076272;28;1146;-55
2022/10/07 01:25:00;;;;;;;;;;;;;;;17.29;56.41;101856.97;5075259;28;1163;-56
2022/10/07 01:27:25;;;;;;;;;;;;;;;16.87;57.11;101849.13;5075936;28;1143;-51
2022/10/07 01:29:55;;;;;;;;;;;;;;;16.54;57.21;101850.78;5044357;28;1165;-53
2022/10/07 01:32:23;;;;;;;;;;;;;;;16.38;57.31;101850.50;5042094;28;1128;-54
2022/10/07 01:34:48;;;;;;;;;;;;;;;16.20;57.04;101845.19;5074492;28;1147;-53
2022/10/07 01:37:15;;;;;;;;;;;;;;;16.45;57.56;101849.50;5076345;28;1110;-55
2022/10/07 01:39:50;;;;;;;;;;;;;;;17.54;55.66;101861.19;5057750;28;1979;-57
2022/10/07 01:42:16;;;;;;;;;;;;;;;16.69;57.29;101850.19;5076110;28;1070;-57
2022/10/07 01:44:42;;;;;;;;;;;;;;;16.46;57.35;101852.00;5056173;28;1221;-56
2022/10/07 01:47:10;;;;;;;;;;;;;;;16.32;57.25;101851.47;5027352;28;1311;-56
2022/10/07 01:49:36;;;;;;;;;;;;;;;16.80;57.32;101849.28;5068819;28;1179;-55
2022/10/07 01:52:17;;;;;;;;;;;;;;;17.22;56.18;101861.81;5057875;28;1194;-57
2022/10/07 01:54:51;;;;;;;;;;;;;;;16.58;57.32;101854.69;5076509;28;1146;-56
2022/10/07 01:57:19;;;;;;;;;;;;;;;16.39;57.27;101862.31;5075927;28;1131;-55
2022/10/07 02:00:00;;;;;;;;;;;;;;;16.20;57.20;101851.53;5057769;28;1913;-56
2022/10/07 02:02:28;;;;;;;;;;;;;;;17.01;57.05;101860.66;5064155;28;1112;-56
2022/10/07 02:05:07;;;;;;;;;;;;;;;17.32;56.04;101861.13;5075259;28;1210;-57
2022/10/07 02:07:34;;;;;;;;;;;;;;;16.64;57.25;101853.69;5076072;28;1218;-57
2022/10/07 02:10:19;;;;;;;;;;;;;;;16.45;57.33;101849.50;5057841;28;1234;-57
2022/10/07 02:12:52;;;;;;;;;;;;;;;16.25;57.23;101846.13;5057841;28;1218;-57
2022/10/07 02:15:22;;;;;;;;;;;;;;;16.18;57.13;101852.84;5075082;28;1225;-56
2022/10/07 02:17:53;;;;;;;;;;;;;;;17.47;55.97;101852.28;5036523;28;1231;-56
2022/10/07 02:20:18;;;;;;;;;;;;;;;16.98;56.89;101852.91;5058588;28;1906;-56
2022/10/07 02:22:44;;;;;;;;;;;;;;;16.55;57.47;101845.03;5041594;28;1205;-54
2022/10/07 02:25:09;;;;;;;;;;;;;;;16.37;57.57;101848.00;5041773;28;1170;-53
2022/10/07 02:27:35;;;;;;;;;;;;;;;16.28;57.21;101850.28;5041294;28;1150;-54
2022/10/07 02:30:03;;;;;;;;;;;;;;;16.52;57.51;101851.03;5048409;28;1155;-53
2022/10/07 02:32:29;;;;;;;;;;;;;;;17.56;55.62;101848.03;5061487;28;1174;-53
2022/10/07 02:35:07;;;;;;;;;;;;;;;16.79;57.00;101846.78;5061011;28;1222;-54
2022/10/07 02:37:34;;;;;;;;;;;;;;;16.41;57.31;101847.25;5044910;28;1159;-50
2022/10/07 02:39:59;;;;;;;;;;;;;;;16.31;57.05;101838.00;5060997;28;1898;-53
2022/10/07 02:42:25;;;;;;;;;;;;;;;16.90;57.41;101846.75;5049427;28;941;-52
2022/10/07 02:44:53;;;;;;;;;;;;;;;17.31;56.16;101846.56;5044485;28;1254;-52
2022/10/07 02:47:23;;;;;;;;;;;;;;;16.66;57.31;101853.44;5079469;28;1075;-53
2022/10/07 02:49:51;;;;;;;;;;;;;;;16.47;57.34;101852.84;5071198;28;1350;-52
2022/10/07 02:52:18;;;;;;;;;;;;;;;16.30;57.26;101845.41;5033772;28;1565;-51
2022/10/07 02:54:46;;;;;;;;;;;;;;;16.18;57.30;101852.84;5044154;28;1405;-54
2022/10/07 02:57:12;;;;;;;;;;;;;;;17.64;55.54;101847.56;5060898;28;1357;-51
2022/10/07 02:59:38;;;;;;;;;;;;;;;17.01;56.88;101853.25;5060438;28;1906;-50
2022/10/07 03:02:04;;;;;;;;;;;;;;;16.60;57.43;101864.34;5059846;28;1326;-50
2022/10/07 03:04:30;;;;;;;;;;;;;;;16.39;57.52;101860.38;5049744;28;1167;-54
2022/10/07 03:06:57;;;;;;;;;;;;;;;16.25;57.19;101861.75;5054095;28;1316;-56
2022/10/07 03:09:23;;;;;;;;;;;;;;;16.16;57.39;101857.72;5044975;28;1235;-57
2022/10/07 03:11:49;;;;;;;;;;;;;;;17.60;55.80;101854.69;5060184;28;1126;-56
2022/10/07 03:14:14;;;;;;;;;;;;;;;16.91;57.19;101866.81;5060696;28;1250;-56
2022/10/07 03:16:40;;;;;;;;;;;;;;;16.53;57.40;101858.16;5065142;28;1376;-57
2022/10/07 03:19:06;;;;;;;;;;;;;;;16.38;57.20;101853.25;5071608;28;1901;-57
2022/10/07 03:21:40;;;;;;;;;;;;;;;16.24;57.50;101854.59;5047597;28;1280;-58
2022/10/07 03:24:06;;;;;;;;;;;;;;;17.70;55.62;101860.31;5055117;28;1222;-58
2022/10/07 03:26:38;;;;;;;;;;;;;;;16.90;57.00;101855.00;5059915;28;1130;-60
2022/10/07 03:29:04;;;;;;;;;;;;;;;16.56;57.14;101859.59;5077742;28;1174;-59
2022/10/07 03:31:30;;;;;;;;;;;;;;;16.37;57.22;101864.47;5060029;28;1232;-57
2022/10/07 03:33:59;;;;;;;;;;;;;;;16.58;57.62;101862.94;5060034;28;1350;-59
2022/10/07 03:36:24;;;;;;;;;;;;;;;17.65;55.28;101862.97;5077744;28;1217;-59
2022/10/07 03:38:50;;;;;;;;;;;;;;;16.83;57.33;101864.44;5060015;28;1417;-58
2022/10/07 03:41:16;;;;;;;;;;;;;;;16.49;57.55;101861.66;5076814;28;1914;-58
2022/10/07 03:43:42;;;;;;;;;;;;;;;16.31;57.59;101858.03;5059979;28;1346;-57
2022/10/07 03:46:09;;;;;;;;;;;;;;;16.20;56.97;101853.44;5059774;28;1394;-58
2022/10/07 03:48:36;;;;;;;;;;;;;;;17.36;56.25;101865.91;5059527;28;1186;-51
2022/10/07 03:51:02;;;;;;;;;;;;;;;17.10;56.48;101862.75;5072552;28;1154;-56
2022/10/07 03:53:29;;;;;;;;;;;;;;;16.58;57.34;101857.44;5054878;28;1283;-59
2022/10/07 03:55:57;;;;;;;;;;;;;;;16.36;57.36;101860.06;5068361;28;1116;-59
2022/10/07 03:58:23;;;;;;;;;;;;;;;16.25;57.14;101856.28;5059513;28;1295;-59
2022/10/07 04:00:48;;;;;;;;;;;;;;;16.85;57.29;101862.31;5059309;28;1921;-58
2022/10/07 04:03:14;;;;;;;;;;;;;;;17.38;55.93;101857.38;5059074;28;1218;-59
2022/10/07 04:05:40;;;;;;;;;;;;;;;16.67;57.19;101857.88;5059205;28;1170;-59
2022/10/07 04:08:06;;;;;;;;;;;;;;;16.42;57.52;101856.31;5059662;28;1190;-59
2022/10/07 04:10:32;;;;;;;;;;;;;;;16.25;57.36;101850.78;5077423;28;1202;-59
2022/10/07 04:12:58;;;;;;;;;;;;;;;16.79;57.28;101861.38;5072113;28;1146;-59
2022/10/07 04:15:24;;;;;;;;;;;;;;;17.38;55.79;101855.47;5059553;28;1205;-60
2022/10/07 04:17:51;;;;;;;;;;;;;;;16.72;57.22;101853.28;5076547;28;1259;-59
2022/10/07 04:20:17;;;;;;;;;;;;;;;16.44;57.20;101848.69;5058737;28;1894;-60
2022/10/07 04:22:44;;;;;;;;;;;;;;;16.28;57.17;101852.22;5058939;28;1350;-61
2022/10/07 04:27:55;;;;;;;;;;;;;;;17.02;57.03;101857.66;5058757;28;1115;-59
2022/10/07 04:30:23;;;;;;;;;;;;;;;17.22;56.39;101853.56;5065462;28;1162;-60
2022/10/07 04:32:49;;;;;;;;;;;;;;;16.60;57.41;101864.34;5055128;28;1214;-59
2022/10/07 04:35:17;;;;;;;;;;;;;;;16.35;57.49;101850.16;5058905;28;1344;-59
2022/10/07 04:37:42;;;;;;;;;;;;;;;16.22;57.44;101851.28;5075890;28;1258;-59
2022/10/07 04:40:08;;;;;;;;;;;;;;;17.41;56.09;101857.69;5058733;28;1959;-60
2022/10/07 04:45:18;;;;;;;;;;;;;;;16.50;57.51;101853.19;5039103;28;1119;-58
2022/10/07 04:47:44;;;;;;;;;;;;;;;16.29;57.42;101841.00;5038477;28;1559;-56
2022/10/07 04:50:10;;;;;;;;;;;;;;;16.15;57.49;101847.84;5049023;28;1155;-58
2022/10/07 04:52:38;;;;;;;;;;;;;;;16.38;57.85;101850.50;5076897;28;1186;-56
2022/10/07 04:55:04;;;;;;;;;;;;;;;17.65;55.66;101851.97;5075962;28;1170;-58
2022/10/07 04:57:29;;;;;;;;;;;;;;;16.77;57.43;101853.41;5058510;28;1245;-60
2022/10/07 04:59:55;;;;;;;;;;;;;;;16.43;57.67;101853.31;5063006;28;1906;-60
2022/10/07 05:02:22;;;;;;;;;;;;;;;16.31;57.68;101849.78;5074965;28;1186;-59
2022/10/07 05:04:47;;;;;;;;;;;;;;;17.72;55.30;101865.56;5058035;28;1154;-57
2022/10/07 05:07:13;;;;;;;;;;;;;;;16.84;57.27;101860.63;5057906;28;1233;-59
2022/10/07 05:09:40;;;;;;;;;;;;;;;16.54;57.63;101870.81;5058134;28;1261;-58
2022/10/07 05:12:05;;;;;;;;;;;;;;;16.40;57.40;101864.81;5058466;28;1612;-59
2022/10/07 05:14:32;;;;;;;;;;;;;;;16.26;57.30;101868.94;5075811;28;1233;-58
2022/10/07 05:16:58;;;;;;;;;;;;;;;16.16;57.36;101871.44;5063254;28;1336;-58
2022/10/07 05:19:28;;;;;;;;;;;;;;;16.07;56.98;101874.59;5042486;28;1898;-57
2022/10/07 05:21:54;;;;;;;;;;;;;;;17.40;55.94;101879.94;5058296;28;1162;-58
2022/10/07 05:24:19;;;;;;;;;;;;;;;16.94;56.88;101885.53;5072385;28;2604;-59
2022/10/07 05:26:46;;;;;;;;;;;;;;;16.53;57.43;101884.81;5071283;28;2094;-59
2022/10/07 05:29:12;;;;;;;;;;;;;;;16.32;57.32;101875.34;5068027;28;2100;-59
2022/10/07 05:31:44;;;;;;;;;;;;;;;16.26;57.30;101879.91;5040640;28;1925;-59
2022/10/07 05:34:11;;;;;;;;;;;;;;;16.25;57.62;101883.72;5046008;28;1838;-59
2022/10/07 05:36:37;;;;;;;;;;;;;;;17.65;55.35;101885.00;5055522;28;2017;-59
2022/10/07 05:39:05;;;;;;;;;;;;;;;17.01;57.43;101890.88;5071480;28;2133;-58
2022/10/07 05:42:00;;;;;;;;;;;;;;;17.04;55.33;101893.97;5051874;28;1369;-59
2022/10/07 05:44:32;;;;;;;;;;;;;;;16.68;53.60;101893.31;5057612;28;1200;-59
2022/10/07 05:47:00;;;;;;;;;;;;;;;17.17;54.45;101889.25;5057293;28;1412;-59
2022/10/07 05:49:26;;;;;;;;;;;;;;;17.06;54.12;101897.28;5071706;28;1150;-55
2022/10/07 05:51:52;;;;;;;;;;;;;;;16.94;52.07;101896.53;5042867;28;1087;-58
2022/10/07 05:54:19;;;;;;;;;;;;;;;17.75;53.66;101890.66;5075405;28;1150;-58
2022/10/07 05:56:44;;;;;;;;;;;;;;;17.43;53.29;101887.69;5075558;28;1189;-59
2022/10/07 05:59:12;;;;;;;;;;;;;;;17.21;51.56;101902.22;5057624;28;2073;-58
2022/10/07 06:01:41;;;;;;;;;;;;;;;17.02;50.38;101903.56;5058126;28;1466;-59
2022/10/07 06:04:11;;;;;;;;;;;;;;;17.85;52.91;101905.59;5053331;28;1158;-59
2022/10/07 06:06:39;;;;;;;;;;;;;;;17.15;52.51;101894.13;5043967;28;1213;-59
2022/10/07 06:14:39;;;;;;;;;;;;;;;17.12;51.90;101892.72;5061071;28;1214;-58
2022/10/07 06:17:06;;;;;;;;;;;;;;;16.91;50.82;101888.78;5057430;28;1355;-59
2022/10/07 06:19:31;;;;;;;;;;;;;;;17.56;52.15;101900.28;5057249;28;1980;-59
2022/10/07 06:22:00;;;;;;;;;;;;;;;17.14;51.38;101892.47;5057727;28;1285;-59
2022/10/07 06:24:26;;;;;;;;;;;;;;;16.94;50.54;101893.78;5057799;28;1197;-59
2022/10/07 06:26:54;;;;;;;;;;;;;;;17.53;51.87;101895.25;5057683;28;1151;-59
2022/10/07 06:29:21;;;;;;;;;;;;;;;17.05;51.01;101894.81;5057253;28;1436;-59
2022/10/07 06:31:46;;;;;;;;;;;;;;;16.91;50.05;101894.28;5056920;28;1265;-60
2022/10/07 06:34:12;;;;;;;;;;;;;;;17.67;51.01;101896.59;5057213;28;1135;-59
2022/10/07 06:36:37;;;;;;;;;;;;;;;17.24;51.32;101909.13;5057704;28;1119;-60
2022/10/07 06:39:03;;;;;;;;;;;;;;;17.33;51.27;101904.88;5054718;28;2091;-60
2022/10/07 06:41:35;;;;;;;;;;;;;;;18.00;51.45;101897.59;5039023;28;1237;-60
2022/10/07 06:44:07;;;;;;;;;;;;;;;17.33;51.19;101907.63;5048629;28;1138;-59
2022/10/07 06:46:34;;;;;;;;;;;;;;;17.07;50.35;101896.22;5073957;28;1247;-59
2022/10/07 06:48:59;;;;;;;;;;;;;;;18.13;51.30;101901.88;5056792;28;1221;-59
2022/10/07 06:51:25;;;;;;;;;;;;;;;17.37;51.08;101895.03;5052666;28;1183;-60
2022/10/07 06:53:52;;;;;;;;;;;;;;;17.19;50.00;101903.53;5057150;28;1204;-59
2022/10/07 06:56:18;;;;;;;;;;;;;;;17.02;49.26;101909.88;5056714;28;1437;-60
2022/10/07 06:58:45;;;;;;;;;;;;;;;17.78;50.49;101901.13;5056724;28;1218;-59
2022/10/07 07:01:13;;;;;;;;;;;;;;;17.19;50.28;101900.78;5057276;28;1906;-59
2022/10/07 07:03:39;;;;;;;;;;;;;;;17.04;49.98;101907.72;5057952;28;1170;-59
2022/10/07 07:06:06;;;;;;;;;;;;;;;18.06;50.68;101901.22;5036355;28;1139;-60
2022/10/07 07:08:33;;;;;;;;;;;;;;;17.41;50.47;101898.13;5040634;28;2361;-60
2022/10/07 07:11:34;;;;;;;;;;;;;;;17.09;49.98;101899.53;5055955;28;1243;-59
2022/10/07 07:13:51;;;;;;;;;;;;;;;16.95;48.85;101903.69;5057951;28;1417;-61
2022/10/07 07:16:17;;;;;;;;;;;;;;;17.75;50.44;101901.66;5056779;28;1330;-59
2022/10/07 07:18:43;;;;;;;;;;;;;;;17.22;50.19;101894.78;5057664;28;1134;-60
2022/10/07 07:21:10;;;;;;;;;;;;;;;17.32;50.18;101903.22;5057638;28;1910;-58
2022/10/07 07:23:35;;;;;;;;;;;;;;;17.78;50.79;101895.63;5046309;28;1245;-58
2022/10/07 07:26:01;;;;;;;;;;;;;;;17.28;50.25;101885.56;5050584;28;1218;-60
2022/10/07 07:28:27;;;;;;;;;;;;;;;17.11;49.42;101888.31;5036525;28;1186;-62
2022/10/07 07:30:52;;;;;;;;;;;;;;;17.05;49.14;101881.88;5050449;28;1202;-58
2022/10/07 07:33:18;;;;;;;;;;;;;;;18.19;50.59;101889.00;5057779;28;1166;-59
2022/10/07 07:35:44;;;;;;;;;;;;;;;17.44;50.79;101884.69;5056441;28;1150;-59
2022/10/07 07:38:09;;;;;;;;;;;;;;;17.32;49.75;101880.38;5057313;28;2272;-60
2022/10/07 07:40:36;;;;;;;;;;;;;;;17.14;48.90;101875.97;5056018;28;1898;-60
2022/10/07 07:43:02;;;;;;;;;;;;;;;17.07;48.57;101867.91;5055896;28;1238;-59
2022/10/07 07:45:32;;;;;;;;;;;;;;;16.95;48.08;101867.97;5057183;28;1110;-59
2022/10/07 07:47:58;;;;;;;;;;;;;;;16.96;47.70;101872.41;5056159;28;1325;-59
2022/10/07 07:50:26;;;;;;;;;;;;;;;16.95;47.59;101862.50;5052310;28;1176;-59
2022/10/07 07:52:53;;;;;;;;;;;;;;;16.84;47.43;101864.19;5056003;28;1126;-59
2022/10/07 07:55:21;;;;;;;;;;;;;;;16.72;47.63;101872.53;5055259;28;2197;-60
2022/10/07 07:57:47;;;;;;;;;;;;;;;17.50;47.93;101871.03;5056302;28;1244;-60
2022/10/07 08:00:14;;;;;;;;;;;;;;;17.20;49.03;101866.75;5061170;28;1975;-60
2022/10/07 08:02:44;;;;;;;;;;;;;;;16.96;48.62;101866.06;5059210;28;1159;-57
2022/10/07 08:05:15;;;;;;;;;;;;;;;16.95;47.91;101864.41;5059165;28;1261;-57
2022/10/07 08:07:40;;;;;;;;;;;;;;;16.84;47.45;101861.44;5060340;28;2200;-59
2022/10/07 08:10:07;;;;;;;;;;;;;;;16.76;47.62;101854.47;5050193;28;1214;-59
2022/10/07 08:12:33;;;;;;;;;;;;;;;16.69;47.44;101862.03;5058934;28;1226;-60
2022/10/07 08:14:58;;;;;;;;;;;;;;;16.58;47.34;101852.78;5058886;28;1167;-58
2022/10/07 08:17:24;;;;;;;;;;;;;;;16.65;47.09;101860.00;5057724;28;1197;-61
2022/10/07 08:19:50;;;;;;;;;;;;;;;16.61;46.96;101854.19;5058753;28;1910;-58
2022/10/07 08:22:16;;;;;;;;;;;;;;;16.61;46.88;101859.69;5058781;28;1234;-61
2022/10/07 08:24:46;;;;;;;;;;;;;;;16.52;47.03;101850.19;5038738;28;1358;-59
2022/10/07 08:27:12;;;;;;;;;;;;;;;16.52;47.08;101852.94;5038478;28;1248;-60
2022/10/07 08:29:38;;;;;;;;;;;;;;;16.40;47.04;101847.50;5060916;28;1174;-61
2022/10/07 08:32:04;;;;;;;;;;;;;;;16.37;46.94;101843.34;5071197;28;1535;-61
2022/10/07 08:34:30;;;;;;;;;;;;;;;16.29;47.17;101841.00;5056387;28;1127;-61
2022/10/07 08:36:55;;;;;;;;;;;;;;;17.02;48.64;101837.59;5064300;28;1111;-61
2022/10/07 08:39:23;;;;;;;;;;;;;;;16.69;48.93;101830.97;5076069;28;2564;-60
2022/10/07 08:41:58;;;;;;;;;;;;;;;16.51;48.86;101834.78;5066666;28;1170;-61
2022/10/07 08:44:24;;;;;;;;;;;;;;;16.46;48.96;101835.53;5075865;28;1114;-60
2022/10/07 08:46:49;;;;;;;;;;;;;;;16.97;49.50;101843.84;5076348;28;1111;-61
2022/10/07 08:49:17;;;;;;;;;;;;;;;16.67;49.33;101828.47;5073449;28;1184;-60
2022/10/07 08:51:53;;;;;;;;;;;;;;;16.62;48.59;101825.66;5055534;28;1143;-57
2022/10/07 08:54:21;;;;;;;;;;;;;;;16.54;48.34;101835.13;5067609;28;1142;-58
2022/10/07 08:56:46;;;;;;;;;;;;;;;16.44;47.82;101829.47;5075478;28;1182;-58
2022/10/07 08:59:19;;;;;;;;;;;;;;;16.42;47.45;101829.72;5054459;28;1977;-58
2022/10/07 09:02:01;;;;;;;;;;;;;;;16.42;47.35;101828.88;5056050;28;1138;-59
2022/10/07 09:04:36;;;;;;;;;;;;;;;16.40;47.25;101823.63;5057938;28;1167;-60
2022/10/07 09:07:08;;;;;;;;;;;;;;;16.37;47.37;101826.88;5055732;28;1206;-59
2022/10/07 09:09:35;;;;;;;;;;;;;;;16.28;47.95;101822.84;5069360;28;1771;-59
2022/10/07 09:12:02;;;;;;;;;;;;;;;16.67;49.37;101831.22;5042520;28;1488;-58
2022/10/07 09:14:28;;;;;;;;;;;;;;;16.49;49.04;101809.50;5034922;28;1166;-58
2022/10/07 09:16:55;;;;;;;;;;;;;;;16.33;48.55;101806.47;5045754;28;1119;-58
2022/10/07 09:19:24;;;;;;;;;;;;;;;16.26;48.40;101808.56;5054781;28;1910;-58
2022/10/07 09:21:49;;;;;;;;;;;;;;;16.92;49.36;101810.78;5055381;28;948;-58
2022/10/07 09:24:25;;;;;;;;;;;;;;;16.52;49.34;101811.75;5071055;28;1170;-58
2022/10/07 09:26:54;;;;;;;;;;;;;;;16.40;48.93;101798.91;5046460;28;1127;-58
2022/10/07 09:29:20;;;;;;;;;;;;;;;16.33;48.68;101802.91;5039937;28;1167;-58
2022/10/07 09:31:48;;;;;;;;;;;;;;;16.27;48.15;101801.13;5057621;28;1130;-57
2022/10/07 09:34:18;;;;;;;;;;;;;;;16.95;49.33;101780.06;5052445;28;1312;-59
2022/10/07 09:37:07;;;;;;;;;;;;;;;16.51;49.60;101790.84;5046064;28;1158;-57
2022/10/07 09:39:32;;;;;;;;;;;;;;;16.41;48.89;101784.13;5049172;28;2638;-57
2022/10/07 09:42:01;;;;;;;;;;;;;;;16.36;48.64;101781.28;5060029;28;1098;-57
2022/10/07 09:44:26;;;;;;;;;;;;;;;16.36;48.17;101789.50;5074734;28;1189;-57
2022/10/07 09:46:56;;;;;;;;;;;;;;;16.21;47.93;101781.00;5045577;28;1138;-57
2022/10/07 09:49:27;;;;;;;;;;;;;;;16.21;47.69;101768.09;5062932;28;1083;-57
2022/10/07 09:52:12;;;;;;;;;;;;;;;16.09;47.94;101772.84;5039286;28;1110;-57
2022/10/07 09:54:37;;;;;;;;;;;;;;;16.05;47.84;101777.16;5039749;28;1176;-57
2022/10/07 09:57:03;;;;;;;;;;;;;;;16.13;47.45;101768.53;5044078;28;1182;-58
2022/10/07 09:59:32;;;;;;;;;;;;;;;17.43;48.38;101764.81;5073844;28;1960;-61
2022/10/07 10:01:58;;;;;;;;;;;;;;;16.65;49.67;101764.75;5079226;28;1126;-59
2022/10/07 10:04:31;;;;;;;;;;;;;;;16.49;49.28;101768.31;5079693;28;1106;-59
2022/10/07 10:07:14;;;;;;;;;;;;;;;16.38;48.79;101757.19;5065975;28;1114;-57
2022/10/07 10:09:46;;;;;;;;;;;;;;;16.52;48.79;101756.81;5074375;28;2520;-58
2022/10/07 10:12:12;;;;;;;;;;;;;;;16.81;49.51;101748.50;5078102;28;1206;-58
2022/10/07 10:14:40;;;;;;;;;;;;;;;16.46;49.50;101746.84;5072654;28;1083;-58
2022/10/07 10:17:14;;;;;;;;;;;;;;;17.33;49.56;101750.91;5058792;28;1098;-57
2022/10/07 10:19:40;;;;;;;;;;;;;;;16.94;50.17;101742.69;5054864;28;1898;-57
2022/10/07 10:22:07;;;;;;;;;;;;;;;16.63;49.74;101736.69;5076970;28;896;-57
2022/10/07 10:27:19;;;;;;;;;;;;;;;16.39;48.71;101734.13;5064149;28;1190;-56
2022/10/07 10:29:48;;;;;;;;;;;;;;;16.41;48.30;101723.72;5079154;28;1287;-57
2022/10/07 10:32:17;;;;;;;;;;;;;;;16.42;48.04;101728.16;5078702;28;1142;-56
2022/10/07 10:34:48;;;;;;;;;;;;;;;16.34;47.71;101706.59;5089115;28;1158;-57
2022/10/07 10:37:40;;;;;;;;;;;;;;;16.33;47.72;101709.59;5078675;28;1189;-61
2022/10/07 10:40:16;;;;;;;;;;;;;;;16.17;47.47;101712.06;5040306;28;1898;-57
2022/10/07 10:43:00;;;;;;;;;;;;;;;16.17;47.90;101697.50;5067154;28;1051;-60
2022/10/07 10:45:32;;;;;;;;;;;;;;;17.09;49.36;101698.09;5069084;28;928;-59
2022/10/07 10:48:16;;;;;;;;;;;;;;;16.57;49.58;101691.03;5076972;28;1118;-60
2022/10/07 10:50:44;;;;;;;;;;;;;;;16.50;48.98;101690.38;5077026;28;1099;-57
2022/10/07 10:53:16;;;;;;;;;;;;;;;16.41;48.35;101678.97;5063976;28;1193;-61
2022/10/07 10:55:41;;;;;;;;;;;;;;;16.32;48.28;101674.97;5077801;28;1166;-57
2022/10/07 10:58:26;;;;;;;;;;;;;;;16.38;47.79;101672.06;5077635;28;1016;-60
2022/10/07 11:01:02;;;;;;;;;;;;;;;16.32;47.93;101670.31;5068759;28;1996;-57
2022/10/07 11:03:30;;;;;;;;;;;;;;;17.38;48.83;101676.75;5070961;28;1174;-57
2022/10/07 11:05:56;;;;;;;;;;;;;;;16.70;49.68;101674.19;5077486;28;1063;-58
2022/10/07 11:08:26;;;;;;;;;;;;;;;16.44;49.47;101667.50;5059884;28;1829;-57
2022/10/07 11:10:54;;;;;;;;;;;;;;;16.46;48.83;101667.25;5059889;28;1170;-60
2022/10/07 11:13:35;;;;;;;;;;;;;;;16.41;48.26;101657.00;5077762;28;1240;-55
2022/10/07 11:16:06;;;;;;;;;;;;;;;16.36;48.27;101654.19;5059964;28;1134;-59
2022/10/07 11:18:35;;;;;;;;;;;;;;;16.29;47.93;101656.28;5077730;28;1138;-56
2022/10/07 11:21:00;;;;;;;;;;;;;;;16.35;47.87;101647.03;5077127;28;1901;-60
2022/10/07 11:23:40;;;;;;;;;;;;;;;16.29;47.63;101653.53;5076608;28;1154;-58
2022/10/07 11:26:17;;;;;;;;;;;;;;;17.40;48.90;101649.84;5077327;28;1103;-57
2022/10/07 11:28:42;;;;;;;;;;;;;;;16.97;50.44;101640.53;5077777;28;1213;-57
2022/10/07 11:31:09;;;;;;;;;;;;;;;18.59;49.23;101646.22;5077671;28;1098;-58
2022/10/07 11:33:35;;;;;;;;;;;;;;;15.11;58.17;101639.31;5077232;28;881;-57
2022/10/07 11:36:05;;;;;;;;;;;;;;;17.36;54.25;101645.97;5063005;28;1213;-56
2022/10/07 11:38:32;;;;;;;;;;;;;;;18.24;52.14;101644.03;5046846;28;2496;-59
2022/10/07 11:41:19;;;;;;;;;;;;;;;15.08;61.73;101652.66;5066292;28;1901;-57
2022/10/07 11:43:45;;;;;;;;;;;;;;;18.61;52.73;101648.72;5044513;28;1120;-57
2022/10/07 11:46:21;;;;;;;;;;;;;;;15.01;60.68;101636.34;5077012;28;1127;-56
2022/10/07 11:48:56;;;;;;;;;;;;;;;17.95;55.41;101652.63;5077082;28;1161;-56
2022/10/07 11:51:23;;;;;;;;;;;;;;;17.22;56.27;101637.28;5071665;28;1072;-57
2022/10/07 11:53:49;;;;;;;;;;;;;;;15.30;59.74;101631.72;5059434;28;1190;-56
2022/10/07 11:56:15;;;;;;;;;;;;;;;16.51;53.57;101631.59;5075626;28;1399;-56
2022/10/07 11:58:43;;;;;;;;;;;;;;;17.14;53.39;101636.88;5076035;28;1220;-59
2022/10/07 12:01:29;;;;;;;;;;;;;;;17.27;54.38;101642.00;5075927;28;1901;-58
2022/10/07 12:04:14;;;;;;;;;;;;;;;16.95;52.59;101636.38;5073489;28;1159;-59
2022/10/07 12:07:02;;;;;;;;;;;;;;;16.83;51.16;101631.81;5076747;28;1264;-59
2022/10/07 12:09:46;;;;;;;;;;;;;;;16.77;50.29;101622.66;5076629;28;2507;-59
2022/10/07 12:12:12;;;;;;;;;;;;;;;16.68;49.52;101629.69;5076273;28;1181;-59
2022/10/07 12:14:41;;;;;;;;;;;;;;;17.28;51.25;101622.50;5077135;28;1166;-59
2022/10/07 12:17:09;;;;;;;;;;;;;;;16.90;50.74;101623.38;5076439;28;1155;-58
2022/10/07 12:19:35;;;;;;;;;;;;;;;16.82;49.78;101610.09;5076735;28;1917;-58
2022/10/07 12:22:04;;;;;;;;;;;;;;;17.76;51.25;101622.69;5076035;28;1194;-58
2022/10/07 12:24:34;;;;;;;;;;;;;;;17.07;51.07;101615.94;5076406;28;1083;-58
2022/10/07 12:27:06;;;;;;;;;;;;;;;16.91;50.34;101614.91;5076663;28;1102;-58
2022/10/07 12:29:33;;;;;;;;;;;;;;;16.81;49.77;101613.91;5076510;28;1178;-59
2022/10/07 12:31:58;;;;;;;;;;;;;;;17.32;50.32;101617.31;5075351;28;1166;-59
2022/10/07 12:34:34;;;;;;;;;;;;;;;17.24;50.27;101621.34;5075741;28;1162;-59
2022/10/07 12:37:18;;;;;;;;;;;;;;;16.86;50.18;101619.50;5076519;28;1182;-59
2022/10/07 12:39:43;;;;;;;;;;;;;;;16.80;49.41;101625.97;5075864;28;2731;-56
2022/10/07 12:42:09;;;;;;;;;;;;;;;18.06;50.17;101621.34;5058528;28;1103;-56
2022/10/07 12:44:37;;;;;;;;;;;;;;;17.23;50.79;101611.44;5075310;28;1154;-56
2022/10/07 12:47:08;;;;;;;;;;;;;;;18.41;50.56;101616.34;5041458;28;870;-56
2022/10/07 12:49:35;;;;;;;;;;;;;;;15.33;58.65;101605.75;5064787;28;1112;-57
2022/10/07 12:52:05;;;;;;;;;;;;;;;16.66;54.27;101618.13;5056516;28;1189;-57
2022/10/07 12:54:31;;;;;;;;;;;;;;;18.41;51.98;101605.31;5055943;28;1119;-58
2022/10/07 12:56:57;;;;;;;;;;;;;;;14.45;61.85;101603.91;5055995;28;1221;-58
2022/10/07 12:59:47;;;;;;;;;;;;;;;18.17;53.91;101607.66;5066885;28;1905;-56
2022/10/07 13:02:24;;;;;;;;;;;;;;;15.56;59.44;101605.66;5061498;28;1111;-55
2022/10/07 13:04:57;;;;;;;;;;;;;;;16.99;57.40;101597.13;5076308;28;1166;-56
2022/10/07 13:07:28;;;;;;;;;;;;;;;17.87;54.69;101576.84;5074715;28;1837;-56
2022/10/07 13:10:00;;;;;;;;;;;;;;;15.04;60.62;101586.59;5075715;28;1119;-56